createdAt,value
2018-09-29T00:00:44.113Z,7.30
2018-09-29T00:03:16.269Z,7.20
2018-09-29T00:05:46.561Z,7.10
2018-09-29T00:08:16.944Z,7.00
2018-09-29T00:10:45.462Z,7.10
2018-09-29T00:13:15.481Z,7.20
2018-09-29T00:15:47.337Z,7.10
2018-09-29T00:18:17.003Z,7.00
2018-09-29T00:20:46.387Z,7.00
2018-09-29T00:23:17.518Z,6.90
2018-09-29T00:25:49.420Z,6.80
2018-09-29T00:28:21.518Z,6.80
2018-09-29T00:30:51.317Z,6.80
2018-09-29T00:33:22.352Z,6.80
2018-09-29T00:35:55.057Z,6.80
2018-09-29T00:38:25.208Z,6.70
2018-09-29T00:40:57.030Z,6.60
2018-09-29T00:43:26.723Z,6.60
2018-09-29T00:45:55.967Z,6.60
2018-09-29T00:48:24.546Z,6.70
2018-09-29T00:50:56.160Z,6.80
2018-09-29T00:53:28.799Z,6.70
2018-09-29T00:56:01.971Z,6.60
2018-09-29T01:01:09.037Z,6.60
2018-09-29T01:03:40.322Z,6.60
2018-09-29T01:06:10.253Z,6.60
2018-09-29T01:08:40.363Z,6.50
2018-09-29T01:11:11.792Z,6.40
2018-09-29T01:13:41.752Z,6.40
2018-09-29T01:16:12.331Z,6.30
2018-09-29T01:18:44.806Z,6.40
2018-09-29T01:21:33.173Z,6.50
2018-09-29T01:24:02.679Z,6.40
2018-09-29T01:26:31.187Z,6.40
2018-09-29T01:29:04.084Z,6.40
2018-09-29T01:31:33.408Z,6.30
2018-09-29T01:34:07.489Z,6.30
2018-09-29T01:36:40.163Z,6.30
2018-09-29T01:39:14.064Z,6.30
2018-09-29T01:41:52.021Z,6.40
2018-09-29T01:44:29.437Z,6.30
2018-09-29T01:49:42.909Z,6.20
2018-09-29T01:52:18.531Z,6.10
2018-09-29T01:57:34.253Z,6.10
2018-09-29T02:00:06.798Z,6.10
2018-09-29T02:02:44.100Z,6.00
2018-09-29T02:05:20.900Z,6.00
2018-09-29T02:07:48.502Z,5.80
2018-09-29T02:10:16.127Z,5.70
2018-09-29T02:12:43.793Z,5.70
2018-09-29T02:15:11.504Z,5.80
2018-09-29T02:17:39.163Z,5.80
2018-09-29T02:20:06.846Z,5.70
2018-09-29T02:22:34.483Z,5.70
2018-09-29T02:25:02.245Z,5.80
2018-09-29T02:27:29.895Z,5.80
2018-09-29T02:29:57.562Z,5.80
2018-09-29T02:32:25.171Z,5.90
2018-09-29T02:34:52.823Z,5.70
2018-09-29T02:37:20.444Z,5.60
2018-09-29T02:39:48.081Z,5.60
2018-09-29T02:42:15.653Z,5.60
2018-09-29T02:44:43.359Z,5.60
2018-09-29T02:47:11.025Z,5.70
2018-09-29T02:49:38.959Z,5.70
2018-09-29T02:52:06.601Z,5.70
2018-09-29T02:54:36.281Z,5.70
2018-09-29T02:57:03.903Z,5.60
2018-09-29T02:59:31.546Z,5.50
2018-09-29T03:01:59.142Z,5.50
2018-09-29T03:04:26.826Z,5.40
2018-09-29T03:06:54.478Z,5.30
2018-09-29T03:09:22.139Z,5.20
2018-09-29T03:11:49.763Z,5.30
2018-09-29T03:14:17.353Z,5.20
2018-09-29T03:16:45.024Z,5.20
2018-09-29T03:19:12.698Z,5.10
2018-09-29T03:21:40.244Z,5.10
2018-09-29T03:24:07.906Z,5.00
2018-09-29T03:26:35.523Z,4.90
2018-09-29T03:29:03.178Z,4.80
2018-09-29T03:31:30.826Z,4.80
2018-09-29T03:33:58.437Z,4.90
2018-09-29T03:36:26.040Z,4.80
2018-09-29T03:38:53.723Z,4.80
2018-09-29T03:41:21.339Z,4.80
2018-09-29T03:43:49.054Z,4.80
2018-09-29T03:46:16.857Z,4.70
2018-09-29T03:48:44.619Z,4.70
2018-09-29T03:51:12.218Z,4.60
2018-09-29T03:53:39.821Z,4.70
2018-09-29T03:56:07.485Z,4.70
2018-09-29T03:58:35.066Z,4.60
2018-09-29T04:01:02.764Z,4.70
2018-09-29T04:03:30.367Z,4.70
2018-09-29T04:05:58.066Z,4.70
2018-09-29T04:08:25.664Z,4.60
2018-09-29T04:10:53.367Z,4.70
2018-09-29T04:13:21.039Z,4.50
2018-09-29T04:15:48.737Z,4.50
2018-09-29T04:18:16.426Z,4.50
2018-09-29T04:20:44.095Z,4.60
2018-09-29T04:23:11.863Z,4.60
2018-09-29T04:25:39.514Z,4.50
2018-09-29T04:28:08.312Z,4.40
2018-09-29T04:30:35.933Z,4.40
2018-09-29T04:33:03.618Z,4.50
2018-09-29T04:35:31.301Z,4.50
2018-09-29T04:37:58.914Z,4.40
2018-09-29T04:40:26.632Z,4.40
2018-09-29T04:42:54.333Z,4.40
2018-09-29T04:45:22.032Z,4.40
2018-09-29T04:47:50.011Z,4.40
2018-09-29T04:50:17.714Z,4.40
2018-09-29T04:52:45.362Z,4.40
2018-09-29T04:55:12.974Z,4.30
2018-09-29T04:57:40.594Z,4.20
2018-09-29T05:00:08.310Z,4.20
2018-09-29T05:02:35.933Z,4.30
2018-09-29T05:05:03.880Z,4.30
2018-09-29T05:07:31.572Z,4.10
2018-09-29T05:09:59.170Z,4.10
2018-09-29T05:12:26.847Z,4.10
2018-09-29T05:17:41.718Z,4.00
2018-09-29T05:20:09.322Z,4.00
2018-09-29T05:22:36.923Z,4.00
2018-09-29T05:25:04.538Z,3.90
2018-09-29T05:27:32.156Z,4.00
2018-09-29T05:29:59.806Z,4.00
2018-09-29T05:32:27.504Z,4.00
2018-09-29T05:34:55.178Z,4.00
2018-09-29T05:37:22.906Z,3.90
2018-09-29T05:39:50.578Z,3.90
2018-09-29T05:42:18.338Z,4.00
2018-09-29T05:44:46.071Z,4.10
2018-09-29T05:47:13.706Z,4.20
2018-09-29T05:49:41.324Z,4.20
2018-09-29T05:52:08.966Z,4.10
2018-09-29T05:54:36.624Z,4.10
2018-09-29T05:57:04.302Z,4.10
2018-09-29T05:59:31.993Z,4.20
2018-09-29T06:01:59.657Z,4.40
2018-09-29T06:04:27.898Z,4.40
2018-09-29T06:06:55.512Z,4.50
2018-09-29T06:09:24.232Z,4.50
2018-09-29T06:12:10.585Z,4.70
2018-09-29T06:14:38.235Z,4.70
2018-09-29T06:17:05.835Z,4.90
2018-09-29T06:19:38.556Z,5.00
2018-09-29T06:22:06.393Z,5.20
2018-09-29T06:24:33.972Z,5.40
2018-09-29T06:27:03.808Z,5.60
2018-09-29T06:29:31.572Z,5.80
2018-09-29T06:32:08.786Z,6.00
2018-09-29T06:34:36.351Z,6.20
2018-09-29T06:37:11.297Z,6.40
2018-09-29T06:39:39.168Z,6.50
2018-09-29T06:42:11.169Z,6.50
2018-09-29T06:44:38.989Z,6.60
2018-09-29T06:47:06.698Z,6.70
2018-09-29T06:49:34.470Z,6.80
2018-09-29T06:52:02.788Z,6.90
2018-09-29T06:54:30.587Z,7.00
2018-09-29T06:57:00.107Z,7.20
2018-09-29T06:59:27.730Z,7.30
2018-09-29T07:01:55.405Z,7.40
2018-09-29T07:04:23.139Z,7.40
2018-09-29T07:07:01.836Z,7.50
2018-09-29T07:09:29.765Z,7.60
2018-09-29T07:11:57.753Z,7.80
2018-09-29T07:14:25.347Z,8.00
2018-09-29T07:16:53.369Z,8.20
2018-09-29T07:19:20.985Z,8.40
2018-09-29T07:21:48.775Z,8.20
2018-09-29T07:24:17.335Z,8.10
2018-09-29T07:26:44.967Z,8.10
2018-09-29T07:29:12.636Z,8.10
2018-09-29T07:31:40.230Z,8.10
2018-09-29T07:34:07.914Z,8.20
2018-09-29T07:36:41.458Z,8.40
2018-09-29T07:39:10.110Z,8.70
2018-09-29T07:41:37.735Z,8.90
2018-09-29T07:44:17.645Z,8.90
2018-09-29T07:46:45.277Z,9.10
2018-09-29T07:49:12.951Z,9.50
2018-09-29T07:51:42.590Z,9.80
2018-09-29T07:54:10.226Z,9.90
2018-09-29T07:56:37.838Z,10.00
2018-09-29T07:59:05.513Z,9.90
2018-09-29T08:01:33.154Z,10.00
2018-09-29T08:04:00.827Z,10.20
2018-09-29T08:06:28.455Z,10.20
2018-09-29T08:08:56.129Z,10.50
2018-09-29T08:11:23.784Z,10.80
2018-09-29T08:13:51.796Z,11.00
2018-09-29T08:16:19.445Z,11.40
2018-09-29T08:18:48.195Z,11.80
2018-09-29T08:21:16.047Z,12.10
2018-09-29T08:23:43.639Z,12.50
2018-09-29T08:26:11.445Z,12.70
2018-09-29T08:28:39.035Z,12.90
2018-09-29T08:31:07.444Z,13.00
2018-09-29T08:33:35.066Z,13.20
2018-09-29T08:36:02.719Z,13.40
2018-09-29T08:38:30.465Z,13.50
2018-09-29T08:40:58.665Z,13.60
2018-09-29T08:43:26.417Z,13.60
2018-09-29T08:45:55.693Z,13.60
2018-09-29T08:48:23.361Z,13.60
2018-09-29T08:50:51.094Z,13.70
2018-09-29T08:53:18.832Z,14.00
2018-09-29T08:55:46.435Z,14.20
2018-09-29T08:58:14.121Z,14.00
2018-09-29T09:00:42.233Z,13.90
2018-09-29T09:03:09.936Z,13.90
2018-09-29T09:05:37.579Z,14.20
2018-09-29T09:08:05.253Z,14.50
2018-09-29T09:10:32.901Z,14.70
2018-09-29T09:13:00.564Z,14.90
2018-09-29T09:15:28.139Z,15.10
2018-09-29T09:17:55.873Z,15.20
2018-09-29T09:20:23.511Z,15.30
2018-09-29T09:22:51.355Z,15.50
2018-09-29T09:25:18.996Z,15.70
2018-09-29T09:27:46.665Z,15.80
2018-09-29T09:30:14.449Z,15.80
2018-09-29T09:32:42.019Z,15.80
2018-09-29T09:35:12.183Z,15.90
2018-09-29T09:37:40.143Z,15.80
2018-09-29T09:40:07.952Z,15.90
2018-09-29T09:42:35.636Z,16.00
2018-09-29T09:45:03.418Z,16.20
2018-09-29T09:47:31.103Z,16.30
2018-09-29T09:49:58.791Z,16.10
2018-09-29T09:52:26.480Z,16.30
2018-09-29T09:54:54.091Z,16.40
2018-09-29T09:57:21.813Z,16.40
2018-09-29T09:59:49.445Z,16.50
2018-09-29T10:02:22.433Z,16.50
2018-09-29T10:04:50.156Z,16.60
2018-09-29T10:07:17.901Z,16.70
2018-09-29T10:09:45.513Z,16.60
2018-09-29T10:12:13.536Z,16.60
2018-09-29T10:14:41.189Z,16.60
2018-09-29T10:17:08.817Z,16.50
2018-09-29T10:19:36.454Z,16.60
2018-09-29T10:22:04.122Z,16.80
2018-09-29T10:24:31.761Z,17.00
2018-09-29T10:26:59.476Z,16.60
2018-09-29T10:29:27.146Z,17.10
2018-09-29T10:31:55.042Z,17.30
2018-09-29T10:34:25.466Z,17.60
2018-09-29T10:36:53.595Z,17.90
2018-09-29T10:39:23.446Z,17.90
2018-09-29T10:41:51.112Z,17.70
2018-09-29T10:44:18.899Z,17.90
2018-09-29T10:46:46.491Z,18.10
2018-09-29T10:49:15.421Z,18.00
2018-09-29T10:51:43.208Z,18.20
2018-09-29T10:54:10.983Z,18.10
2018-09-29T10:56:38.655Z,18.20
2018-09-29T10:59:06.507Z,18.40
2018-09-29T11:01:34.438Z,18.50
2018-09-29T11:04:02.107Z,18.40
2018-09-29T11:06:29.822Z,18.70
2018-09-29T11:08:57.474Z,18.70
2018-09-29T11:11:25.365Z,18.50
2018-09-29T11:13:53.225Z,18.80
2018-09-29T11:16:21.018Z,18.60
2018-09-29T11:18:48.719Z,18.80
2018-09-29T11:21:16.368Z,18.90
2018-09-29T11:23:44.051Z,18.80
2018-09-29T11:26:11.767Z,18.60
2018-09-29T11:28:39.591Z,18.80
2018-09-29T11:31:11.285Z,18.90
2018-09-29T11:33:39.026Z,18.90
2018-09-29T11:36:06.921Z,18.70
2018-09-29T11:38:38.099Z,18.90
2018-09-29T11:41:05.900Z,19.00
2018-09-29T11:43:38.619Z,19.30
2018-09-29T11:46:06.295Z,19.20
2018-09-29T11:48:34.202Z,19.40
2018-09-29T11:51:09.157Z,19.40
2018-09-29T11:53:37.122Z,19.40
2018-09-29T11:56:04.897Z,19.40
2018-09-29T11:58:32.672Z,19.60
2018-09-29T12:01:00.341Z,19.70
2018-09-29T12:03:28.126Z,19.40
2018-09-29T12:05:55.931Z,19.40
2018-09-29T12:08:23.600Z,19.60
2018-09-29T12:10:52.199Z,19.70
2018-09-29T12:13:19.863Z,19.60
2018-09-29T12:15:47.591Z,19.50
2018-09-29T12:18:15.425Z,19.50
2018-09-29T12:20:43.961Z,19.50
2018-09-29T12:23:11.629Z,19.60
2018-09-29T12:25:39.266Z,19.50
2018-09-29T12:28:07.068Z,19.70
2018-09-29T12:30:34.709Z,19.90
2018-09-29T12:33:02.336Z,19.90
2018-09-29T12:35:30.075Z,19.80
2018-09-29T12:37:57.754Z,19.90
2018-09-29T12:40:25.562Z,19.60
2018-09-29T12:42:54.366Z,19.70
2018-09-29T12:45:22.099Z,19.60
2018-09-29T12:47:49.928Z,19.70
2018-09-29T12:50:17.990Z,19.50
2018-09-29T12:52:46.779Z,19.70
2018-09-29T12:55:15.322Z,19.70
2018-09-29T12:57:43.048Z,19.80
2018-09-29T13:00:10.956Z,19.90
2018-09-29T13:02:46.842Z,19.90
2018-09-29T13:05:14.483Z,19.80
2018-09-29T13:07:42.107Z,19.90
2018-09-29T13:10:09.725Z,19.80
2018-09-29T13:12:37.346Z,19.70
2018-09-29T13:15:04.978Z,19.50
2018-09-29T13:17:32.622Z,19.60
2018-09-29T13:20:00.223Z,19.50
2018-09-29T13:22:27.800Z,19.50
2018-09-29T13:24:55.546Z,19.40
2018-09-29T13:27:23.547Z,19.20
2018-09-29T13:29:51.130Z,19.10
2018-09-29T13:32:18.718Z,19.10
2018-09-29T13:34:46.357Z,19.10
2018-09-29T13:37:20.580Z,19.20
2018-09-29T13:39:48.334Z,19.20
2018-09-29T13:42:16.087Z,19.20
2018-09-29T13:44:47.318Z,19.30
2018-09-29T13:47:14.981Z,19.40
2018-09-29T13:49:42.627Z,19.10
2018-09-29T13:55:06.035Z,19.00
2018-09-29T13:57:33.513Z,18.90
2018-09-29T14:00:01.998Z,18.90
2018-09-29T14:02:29.397Z,18.50
2018-09-29T14:04:57.317Z,18.20
2018-09-29T14:07:24.832Z,18.30
2018-09-29T14:09:52.469Z,18.40
2018-09-29T14:12:20.041Z,18.60
2018-09-29T14:14:47.450Z,18.70
2018-09-29T14:17:14.900Z,18.50
2018-09-29T14:19:42.343Z,18.40
2018-09-29T14:22:09.816Z,18.40
2018-09-29T14:24:37.323Z,18.30
2018-09-29T14:27:04.748Z,18.30
2018-09-29T14:29:32.165Z,18.20
2018-09-29T14:31:59.590Z,18.20
2018-09-29T14:34:26.997Z,18.10
2018-09-29T14:37:00.143Z,18.10
2018-09-29T14:39:27.488Z,18.10
2018-09-29T14:41:54.973Z,18.10
2018-09-29T14:44:22.343Z,18.10
2018-09-29T14:46:49.782Z,18.10
2018-09-29T14:49:29.482Z,18.00
2018-09-29T14:51:56.984Z,17.90
2018-09-29T14:54:31.145Z,17.90
2018-09-29T14:57:00.637Z,17.90
2018-09-29T14:59:28.276Z,17.80
2018-09-29T15:01:55.693Z,17.80
2018-09-29T15:04:23.162Z,17.70
2018-09-29T15:06:50.601Z,17.60
2018-09-29T15:09:18.074Z,17.60
2018-09-29T15:11:45.515Z,17.60
2018-09-29T15:14:12.928Z,17.40
2018-09-29T15:16:40.366Z,17.50
2018-09-29T15:19:07.823Z,17.30
2018-09-29T15:21:35.289Z,17.30
2018-09-29T15:24:02.738Z,17.30
2018-09-29T15:26:30.661Z,17.20
2018-09-29T15:28:58.081Z,17.20
2018-09-29T15:31:25.498Z,17.10
2018-09-29T15:33:52.928Z,17.00
2018-09-29T15:36:20.377Z,17.00
2018-09-29T15:38:47.872Z,16.90
2018-09-29T15:41:15.298Z,16.90
2018-09-29T15:43:42.748Z,16.90
2018-09-29T15:46:10.242Z,16.70
2018-09-29T15:48:37.774Z,16.70
2018-09-29T15:51:05.173Z,16.60
2018-09-29T15:53:32.608Z,16.60
2018-09-29T15:56:00.085Z,16.60
2018-09-29T15:58:27.497Z,16.50
2018-09-29T16:00:54.912Z,16.50
2018-09-29T16:03:22.325Z,16.50
2018-09-29T16:05:49.754Z,16.40
2018-09-29T16:08:17.568Z,16.40
2018-09-29T16:10:45.263Z,16.40
2018-09-29T16:13:12.950Z,16.40
2018-09-29T16:15:40.616Z,16.40
2018-09-29T16:18:09.266Z,16.40
2018-09-29T16:20:42.480Z,16.30
2018-09-29T16:23:10.341Z,16.20
2018-09-29T16:25:37.980Z,16.20
2018-09-29T16:28:18.195Z,16.10
2018-09-29T16:30:45.933Z,16.10
2018-09-29T16:33:13.645Z,16.00
2018-09-29T16:35:41.540Z,15.90
2018-09-29T16:38:11.627Z,15.90
2018-09-29T16:40:40.122Z,15.80
2018-09-29T16:43:07.948Z,15.70
2018-09-29T16:45:35.890Z,15.60
2018-09-29T16:48:04.081Z,15.60
2018-09-29T16:50:32.312Z,15.40
2018-09-29T16:53:01.878Z,15.40
2018-09-29T16:55:30.836Z,15.20
2018-09-29T16:58:06.926Z,15.10
2018-09-29T17:00:35.050Z,15.00
2018-09-29T17:03:03.181Z,14.90
2018-09-29T17:05:35.997Z,14.80
2018-09-29T17:08:04.795Z,14.70
2018-09-29T17:10:32.830Z,14.60
2018-09-29T17:13:03.135Z,14.40
2018-09-29T17:15:31.327Z,14.30
2018-09-29T17:18:00.853Z,14.20
2018-09-29T17:20:29.213Z,14.10
2018-09-29T17:23:03.016Z,14.10
2018-09-29T17:25:30.869Z,14.00
2018-09-29T17:27:58.807Z,13.80
2018-09-29T17:30:33.131Z,13.60
2018-09-29T17:33:01.169Z,13.40
2018-09-29T17:35:29.149Z,13.30
2018-09-29T17:37:59.171Z,13.20
2018-09-29T17:40:27.047Z,13.00
2018-09-29T17:42:55.205Z,12.90
2018-09-29T17:45:23.271Z,12.80
2018-09-29T17:47:50.999Z,12.70
2018-09-29T17:50:19.705Z,12.60
2018-09-29T17:52:47.390Z,12.40
2018-09-29T17:55:15.448Z,12.30
2018-09-29T17:57:43.337Z,12.10
2018-09-29T18:00:11.104Z,12.10
2018-09-29T18:02:38.851Z,11.90
2018-09-29T18:05:06.661Z,11.90
2018-09-29T18:07:34.298Z,11.90
2018-09-29T18:10:02.087Z,11.90
2018-09-29T18:12:29.848Z,11.80
2018-09-29T18:14:57.682Z,11.90
2018-09-29T18:17:25.394Z,11.90
2018-09-29T18:19:53.212Z,11.90
2018-09-29T18:22:20.969Z,11.90
2018-09-29T18:24:48.801Z,11.80
2018-09-29T18:27:16.476Z,11.80
2018-09-29T18:29:44.295Z,11.90
2018-09-29T18:32:12.131Z,11.90
2018-09-29T18:34:40.909Z,12.00
2018-09-29T18:37:08.700Z,11.90
2018-09-29T18:39:36.465Z,12.00
2018-09-29T18:42:04.133Z,11.90
2018-09-29T18:44:31.940Z,11.80
2018-09-29T18:46:59.629Z,11.70
2018-09-29T18:49:27.403Z,11.60
2018-09-29T18:51:55.214Z,11.60
2018-09-29T18:54:22.977Z,11.40
2018-09-29T18:56:50.720Z,11.30
2018-09-29T18:59:31.999Z,11.30
2018-09-29T19:02:04.082Z,11.20
2018-09-29T19:04:31.669Z,11.20
2018-09-29T19:06:59.382Z,11.30
2018-09-29T19:09:31.572Z,11.20
2018-09-29T19:11:59.454Z,11.10
2018-09-29T19:14:27.090Z,11.00
2018-09-29T19:16:54.745Z,11.00
2018-09-29T19:19:24.536Z,10.90
2018-09-29T19:21:52.254Z,10.80
2018-09-29T19:24:19.944Z,10.80
2018-09-29T19:26:47.594Z,10.70
2018-09-29T19:29:15.224Z,10.60
2018-09-29T19:31:42.751Z,10.50
2018-09-29T19:37:02.764Z,10.20
2018-09-29T19:39:30.534Z,10.20
2018-09-29T19:42:10.471Z,10.10
2018-09-29T19:44:38.125Z,10.10
2018-09-29T19:47:06.670Z,10.00
2018-09-29T19:49:34.412Z,10.10
2018-09-29T19:52:02.020Z,9.90
2018-09-29T19:54:35.720Z,9.90
2018-09-29T19:57:04.195Z,9.90
2018-09-29T19:59:40.202Z,9.70
2018-09-29T20:02:07.828Z,9.70
2018-09-29T20:04:35.530Z,9.70
2018-09-29T20:07:05.962Z,9.70
2018-09-29T20:09:33.433Z,9.60
2018-09-29T20:12:00.923Z,9.60
2018-09-29T20:14:28.415Z,9.60
2018-09-29T20:16:55.867Z,9.60
2018-09-29T20:19:23.478Z,9.50
2018-09-29T20:21:50.893Z,9.50
2018-09-29T20:24:18.427Z,9.50
2018-09-29T20:26:45.802Z,9.50
2018-09-29T20:29:13.245Z,9.40
2018-09-29T20:31:40.710Z,9.40
2018-09-29T20:34:10.173Z,9.30
2018-09-29T20:36:37.641Z,9.30
2018-09-29T20:39:06.363Z,9.10
2018-09-29T20:41:33.789Z,9.10
2018-09-29T20:44:02.232Z,9.10
2018-09-29T20:46:29.657Z,9.00
2018-09-29T20:51:48.269Z,8.80
2018-09-29T20:54:22.521Z,8.70
2018-09-29T20:56:49.973Z,8.60
2018-09-29T20:59:17.412Z,8.60
2018-09-29T21:01:44.958Z,8.60
2018-09-29T21:04:12.402Z,8.60
2018-09-29T21:06:39.857Z,8.50
2018-09-29T21:09:07.511Z,8.50
2018-09-29T21:11:34.989Z,8.40
2018-09-29T21:14:02.423Z,8.40
2018-09-29T21:16:29.857Z,8.30
2018-09-29T21:18:57.388Z,8.30
2018-09-29T21:21:24.820Z,8.30
2018-09-29T21:23:52.368Z,8.20
2018-09-29T21:26:19.817Z,8.30
2018-09-29T21:28:47.250Z,8.20
2018-09-29T21:31:14.676Z,8.20
2018-09-29T21:33:47.212Z,8.10
2018-09-29T21:36:14.773Z,8.10
2018-09-29T21:38:42.304Z,8.10
2018-09-29T21:41:09.757Z,8.10
2018-09-29T21:43:37.191Z,8.10
2018-09-29T21:46:04.620Z,8.00
2018-09-29T21:48:32.194Z,7.80
2018-09-29T21:50:59.604Z,7.70
2018-09-29T21:53:27.068Z,7.60
2018-09-29T21:55:54.514Z,7.60
2018-09-29T21:58:21.957Z,7.60
2018-09-29T22:00:51.475Z,7.60
2018-09-29T22:03:18.920Z,7.60
2018-09-29T22:05:46.752Z,7.50
2018-09-29T22:08:14.513Z,7.60
2018-09-29T22:10:42.045Z,7.60
2018-09-29T22:13:09.469Z,7.60
2018-09-29T22:15:36.906Z,7.60
2018-09-29T22:20:50.305Z,7.50
2018-09-29T22:23:17.722Z,7.50
2018-09-29T22:25:45.129Z,7.40
2018-09-29T22:28:12.576Z,7.30
2018-09-29T22:30:40.009Z,7.30
2018-09-29T22:33:13.650Z,7.30
2018-09-29T22:35:41.074Z,7.30
2018-09-29T22:38:08.520Z,7.30
2018-09-29T22:40:35.990Z,7.30
2018-09-29T22:43:03.450Z,7.20
2018-09-29T22:45:35.997Z,7.30
2018-09-29T22:48:03.453Z,7.20
2018-09-29T22:50:30.868Z,7.20
2018-09-29T22:53:00.322Z,7.10
2018-09-29T22:55:27.729Z,7.00
2018-09-29T22:57:55.151Z,7.00
2018-09-29T23:00:22.609Z,7.00
2018-09-29T23:02:50.045Z,7.00
2018-09-29T23:05:18.537Z,6.90
2018-09-29T23:07:45.981Z,6.90
2018-09-29T23:10:14.893Z,6.90
2018-09-29T23:12:42.322Z,6.90
2018-09-29T23:15:09.738Z,6.90
2018-09-29T23:17:37.209Z,6.90
2018-09-29T23:20:04.694Z,6.80
2018-09-29T23:22:32.150Z,6.80
2018-09-29T23:24:59.582Z,6.70
2018-09-29T23:27:27.025Z,6.60
2018-09-29T23:29:54.482Z,6.70
2018-09-29T23:32:21.898Z,6.60
2018-09-29T23:34:49.357Z,6.40
2018-09-29T23:37:16.797Z,6.40
2018-09-29T23:39:44.264Z,6.40
2018-09-29T23:42:11.707Z,6.30
2018-09-29T23:44:39.162Z,6.30
2018-09-29T23:47:06.574Z,6.30
2018-09-29T23:49:34.082Z,6.40
2018-09-29T23:52:01.496Z,6.40
2018-09-29T23:54:29.019Z,6.40
2018-09-29T23:56:56.392Z,6.40
2018-09-29T23:59:23.840Z,6.30
